createdAt,value
2022-12-19T00:01:07.230Z,73.75
2022-12-19T00:03:53.908Z,73.68
2022-12-19T00:06:43.464Z,73.39
2022-12-19T00:09:28.703Z,73.43
2022-12-19T00:12:19.024Z,73.80
2022-12-19T00:15:03.189Z,73.08
2022-12-19T00:17:47.728Z,72.48
2022-12-19T00:20:31.470Z,73.20
2022-12-19T00:23:15.164Z,73.68
2022-12-19T00:26:08.291Z,74.90
2022-12-19T00:28:57.028Z,72.94
2022-12-19T00:31:41.471Z,72.65
2022-12-19T00:34:25.381Z,72.31
2022-12-19T00:37:09.118Z,72.55
2022-12-19T00:39:52.882Z,73.74
2022-12-19T00:42:36.631Z,76.39
2022-12-19T00:45:22.038Z,76.70
2022-12-19T00:48:06.106Z,75.89
2022-12-19T00:50:50.935Z,76.62
2022-12-19T00:53:34.994Z,76.18
2022-12-19T00:56:21.589Z,77.54
2022-12-19T00:59:05.432Z,76.96
2022-12-19T01:01:50.703Z,77.75
2022-12-19T01:04:39.734Z,77.70
2022-12-19T01:07:29.224Z,77.17
2022-12-19T01:10:13.024Z,77.82
2022-12-19T01:12:56.813Z,76.59
2022-12-19T01:15:41.017Z,75.73
2022-12-19T01:18:26.129Z,75.41
2022-12-19T01:21:11.844Z,74.46
2022-12-19T01:23:55.556Z,75.64
2022-12-19T01:26:39.899Z,74.92
2022-12-19T01:29:23.712Z,72.94
2022-12-19T01:32:07.545Z,73.32
2022-12-19T01:34:52.823Z,72.77
2022-12-19T01:37:36.581Z,73.68
2022-12-19T01:40:21.288Z,74.21
2022-12-19T01:43:05.584Z,74.25
2022-12-19T01:45:51.276Z,74.29
2022-12-19T01:48:40.193Z,74.01
2022-12-19T01:51:29.993Z,74.30
2022-12-19T01:54:19.852Z,73.53
2022-12-19T01:57:08.479Z,73.33
2022-12-19T01:59:55.654Z,72.18
2022-12-19T02:02:43.229Z,73.63
2022-12-19T02:05:27.304Z,73.88
2022-12-19T02:08:13.812Z,73.97
2022-12-19T02:10:57.592Z,73.06
2022-12-19T02:13:42.245Z,73.17
2022-12-19T02:16:42.209Z,72.08
2022-12-19T02:19:55.607Z,72.76
2022-12-19T02:22:54.077Z,72.48
2022-12-19T02:26:12.156Z,72.21
2022-12-19T02:29:18.530Z,71.74
2022-12-19T02:32:08.994Z,71.08
2022-12-19T02:34:59.702Z,71.94
2022-12-19T02:37:49.102Z,72.19
2022-12-19T02:40:41.175Z,71.43
2022-12-19T02:43:32.123Z,72.39
2022-12-19T02:46:18.177Z,71.16
2022-12-19T02:49:04.105Z,71.66
2022-12-19T02:51:47.944Z,71.94
2022-12-19T02:54:31.755Z,71.85
2022-12-19T02:57:25.125Z,72.01
2022-12-19T03:00:16.292Z,72.04
2022-12-19T03:03:12.052Z,73.57
2022-12-19T03:06:05.425Z,71.87
2022-12-19T03:08:55.321Z,73.55
2022-12-19T03:11:42.400Z,72.82
2022-12-19T03:14:29.615Z,72.10
2022-12-19T03:17:13.567Z,72.13
2022-12-19T03:19:57.891Z,72.33
2022-12-19T03:22:43.142Z,72.29
2022-12-19T03:25:27.594Z,73.06
2022-12-19T03:28:17.338Z,72.55
2022-12-19T03:31:04.160Z,72.29
2022-12-19T03:33:51.770Z,73.28
2022-12-19T03:36:41.493Z,71.15
2022-12-19T03:39:27.867Z,73.54
2022-12-19T03:42:30.946Z,71.82
2022-12-19T03:45:22.056Z,72.13
2022-12-19T03:48:10.524Z,71.90
2022-12-19T03:51:04.537Z,70.67
2022-12-19T03:53:59.324Z,69.95
2022-12-19T03:56:54.285Z,70.08
2022-12-19T03:59:45.981Z,68.83
2022-12-19T04:02:37.584Z,70.17
2022-12-19T04:05:23.736Z,71.04
2022-12-19T04:08:09.367Z,71.13
2022-12-19T04:11:00.010Z,71.03
2022-12-19T04:13:48.497Z,70.99
2022-12-19T04:16:40.993Z,71.99
2022-12-19T04:19:32.152Z,71.34
2022-12-19T04:22:21.854Z,70.68
2022-12-19T04:25:09.074Z,71.87
2022-12-19T04:27:56.989Z,72.34
2022-12-19T04:30:43.971Z,71.86
2022-12-19T04:33:27.871Z,71.26
2022-12-19T04:36:12.800Z,71.74
2022-12-19T04:38:56.842Z,72.09
2022-12-19T04:41:40.824Z,72.33
2022-12-19T04:44:24.724Z,71.72
2022-12-19T04:47:09.872Z,72.36
2022-12-19T04:49:53.634Z,72.42
2022-12-19T04:52:37.325Z,72.71
2022-12-19T04:55:21.137Z,71.63
2022-12-19T04:58:06.243Z,71.18
2022-12-19T05:00:50.430Z,70.91
2022-12-19T05:03:36.178Z,70.28
2022-12-19T05:06:20.741Z,69.92
2022-12-19T05:09:05.275Z,71.11
2022-12-19T05:11:49.316Z,71.12
2022-12-19T05:14:33.389Z,71.48
2022-12-19T05:17:17.550Z,72.10
2022-12-19T05:20:02.980Z,69.99
2022-12-19T05:22:47.270Z,69.78
2022-12-19T05:25:31.349Z,70.34
2022-12-19T05:28:16.007Z,71.64
2022-12-19T05:31:08.319Z,72.95
2022-12-19T05:33:52.302Z,72.63
2022-12-19T05:36:37.764Z,70.97
2022-12-19T05:39:21.664Z,71.89
2022-12-19T05:42:09.676Z,71.84
2022-12-19T05:44:56.084Z,71.70
2022-12-19T05:47:39.744Z,71.62
2022-12-19T05:50:23.582Z,71.30
2022-12-19T05:53:09.644Z,71.96
2022-12-19T05:55:53.452Z,72.01
2022-12-19T05:58:37.804Z,72.00
2022-12-19T06:01:23.795Z,71.89
2022-12-19T06:04:07.871Z,72.81
2022-12-19T06:06:51.723Z,70.84
2022-12-19T06:09:37.242Z,72.06
2022-12-19T06:12:21.044Z,72.20
2022-12-19T06:15:05.447Z,72.53
2022-12-19T06:17:49.208Z,71.84
2022-12-19T06:20:33.082Z,72.18
2022-12-19T06:23:16.957Z,72.56
2022-12-19T06:26:03.364Z,72.21
2022-12-19T06:28:47.246Z,71.33
2022-12-19T06:31:31.792Z,70.06
2022-12-19T06:34:39.469Z,71.99
2022-12-19T06:37:19.686Z,71.46
2022-12-19T06:40:03.586Z,72.54
2022-12-19T06:42:49.301Z,71.67
2022-12-19T06:45:33.083Z,71.67
2022-12-19T06:48:16.889Z,72.00
2022-12-19T06:51:00.783Z,72.20
2022-12-19T06:53:44.584Z,72.60
2022-12-19T06:56:28.551Z,72.84
2022-12-19T06:59:16.827Z,72.50
2022-12-19T07:02:06.550Z,73.53
2022-12-19T07:04:52.939Z,72.85
2022-12-19T07:07:37.221Z,73.35
2022-12-19T07:10:20.993Z,72.83
2022-12-19T07:13:05.525Z,73.48
2022-12-19T07:15:52.090Z,72.18
2022-12-19T07:18:38.136Z,71.71
2022-12-19T07:21:22.321Z,70.86
2022-12-19T07:24:07.991Z,71.09
2022-12-19T07:26:52.915Z,70.87
2022-12-19T07:29:36.727Z,71.22
2022-12-19T07:32:22.308Z,69.96
2022-12-19T07:35:06.911Z,70.89
2022-12-19T07:37:51.119Z,71.65
2022-12-19T07:40:35.602Z,70.83
2022-12-19T07:43:19.434Z,70.69
2022-12-19T07:46:03.468Z,70.23
2022-12-19T07:48:49.206Z,71.21
2022-12-19T07:51:33.534Z,70.54
2022-12-19T07:54:17.359Z,71.58
2022-12-19T07:57:02.497Z,71.09
2022-12-19T07:59:46.852Z,70.01
2022-12-19T08:02:30.780Z,70.50
2022-12-19T08:05:16.143Z,71.26
2022-12-19T08:07:59.830Z,70.95
2022-12-19T08:10:43.758Z,70.69
2022-12-19T08:13:30.064Z,69.13
2022-12-19T08:16:17.554Z,69.67
2022-12-19T08:19:01.365Z,69.71
2022-12-19T08:21:46.522Z,68.95
2022-12-19T08:24:30.981Z,68.16
2022-12-19T08:27:14.779Z,67.11
2022-12-19T08:29:58.650Z,67.08
2022-12-19T08:32:42.587Z,67.36
2022-12-19T08:35:26.305Z,66.60
2022-12-19T08:38:11.490Z,66.79
2022-12-19T08:40:55.560Z,65.34
2022-12-19T08:43:39.735Z,65.48
2022-12-19T08:46:24.145Z,66.02
2022-12-19T08:49:08.000Z,66.75
2022-12-19T08:51:51.962Z,66.21
2022-12-19T08:54:37.297Z,66.39
2022-12-19T08:57:21.067Z,66.41
2022-12-19T09:00:06.089Z,66.46
2022-12-19T09:02:51.775Z,65.72
2022-12-19T09:06:05.128Z,64.93
2022-12-19T09:08:40.126Z,65.28
2022-12-19T09:11:25.308Z,66.07
2022-12-19T09:14:09.067Z,66.21
2022-12-19T09:16:52.853Z,68.79
2022-12-19T09:19:36.831Z,64.96
2022-12-19T09:22:21.219Z,64.46
2022-12-19T09:25:11.838Z,63.13
2022-12-19T09:28:28.504Z,62.54
2022-12-19T09:31:04.370Z,62.43
2022-12-19T09:33:49.013Z,62.00
2022-12-19T09:36:32.805Z,60.04
2022-12-19T09:39:17.569Z,60.09
2022-12-19T09:42:40.445Z,57.88
2022-12-19T09:45:51.029Z,59.42
2022-12-19T09:48:34.763Z,59.48
2022-12-19T09:51:31.512Z,58.58
2022-12-19T09:54:18.572Z,57.35
2022-12-19T09:57:06.269Z,58.01
2022-12-19T09:59:55.467Z,58.02
2022-12-19T10:02:48.694Z,58.11
2022-12-19T10:06:04.631Z,59.74
2022-12-19T10:09:10.046Z,58.94
2022-12-19T10:12:45.180Z,58.43
2022-12-19T10:15:10.474Z,56.59
2022-12-19T10:18:23.067Z,57.48
2022-12-19T10:21:10.204Z,54.80
2022-12-19T10:24:06.607Z,56.68
2022-12-19T10:26:53.480Z,56.77
2022-12-19T10:30:01.352Z,57.97
2022-12-19T10:33:00.764Z,55.41
2022-12-19T10:35:49.423Z,55.60
2022-12-19T10:38:47.353Z,54.97
2022-12-19T10:41:43.723Z,55.92
2022-12-19T10:44:30.970Z,55.50
2022-12-19T10:47:18.357Z,55.99
2022-12-19T10:50:07.558Z,56.59
2022-12-19T10:52:56.981Z,55.77
2022-12-19T10:55:44.478Z,56.12
2022-12-19T10:58:30.155Z,56.91
2022-12-19T11:01:16.464Z,56.38
2022-12-19T11:04:20.055Z,57.57
2022-12-19T11:07:18.571Z,56.95
2022-12-19T11:11:40.366Z,56.58
2022-12-19T11:19:18.751Z,57.98
2022-12-19T11:20:32.651Z,58.03
2022-12-19T11:29:17.975Z,57.18
2022-12-19T11:29:25.173Z,57.24
2022-12-19T11:30:08.453Z,56.46
2022-12-19T11:31:52.921Z,56.94
2022-12-19T11:32:46.784Z,57.08
2022-12-19T11:35:36.466Z,57.12
2022-12-19T11:38:34.023Z,56.82
2022-12-19T11:41:23.777Z,57.43
2022-12-19T11:44:12.696Z,57.54
2022-12-19T11:47:04.909Z,56.68
2022-12-19T11:49:55.988Z,57.34
2022-12-19T11:55:52.733Z,56.54
2022-12-19T11:58:37.822Z,57.66
2022-12-19T12:01:40.616Z,57.22
2022-12-19T12:04:48.230Z,57.10
2022-12-19T12:08:39.276Z,58.77
2022-12-19T12:15:20.280Z,58.50
2022-12-19T12:25:48.652Z,57.07
2022-12-19T12:31:12.696Z,57.85
2022-12-19T12:31:31.783Z,57.34
2022-12-19T12:31:44.953Z,56.91
2022-12-19T12:31:49.213Z,56.83
2022-12-19T12:35:30.458Z,57.84
2022-12-19T12:35:38.456Z,58.46
2022-12-19T12:41:11.132Z,57.96
2022-12-19T12:44:07.874Z,59.08
2022-12-19T12:47:02.060Z,58.26
2022-12-19T12:49:50.279Z,58.98
2022-12-19T12:52:37.451Z,57.86
2022-12-19T12:55:27.322Z,59.00
2022-12-19T12:58:44.786Z,60.39
2022-12-19T13:01:35.498Z,59.01
2022-12-19T13:04:44.496Z,59.87
2022-12-19T13:07:35.703Z,60.08
2022-12-19T13:10:25.768Z,59.01
2022-12-19T13:13:19.791Z,59.07
2022-12-19T13:16:53.104Z,59.14
2022-12-19T13:19:40.393Z,60.82
2022-12-19T13:22:39.490Z,61.32
2022-12-19T13:25:50.563Z,62.08
2022-12-19T13:28:41.862Z,61.49
2022-12-19T13:31:25.795Z,61.59
2022-12-19T13:34:22.280Z,61.36
2022-12-19T13:39:49.599Z,60.36
2022-12-19T13:40:34.134Z,61.07
2022-12-19T13:43:38.009Z,61.59
2022-12-19T13:46:32.366Z,61.33
2022-12-19T13:49:20.630Z,61.37
2022-12-19T13:52:06.183Z,62.00
2022-12-19T13:54:53.282Z,62.31
2022-12-19T13:57:39.740Z,62.82
2022-12-19T14:00:32.742Z,61.17
2022-12-19T14:03:22.251Z,62.64
2022-12-19T14:06:16.475Z,63.94
2022-12-19T14:09:25.231Z,64.54
2022-12-19T14:13:49.340Z,64.49
2022-12-19T14:15:45.818Z,64.78
2022-12-19T14:18:43.065Z,65.05
2022-12-19T14:22:05.975Z,65.41
2022-12-19T14:24:35.159Z,65.25
2022-12-19T14:28:20.906Z,65.96
2022-12-19T14:30:32.879Z,66.49
2022-12-19T14:33:43.500Z,67.97
2022-12-19T14:36:26.559Z,68.98
2022-12-19T14:39:25.330Z,69.24
2022-12-19T14:43:30.262Z,69.16
2022-12-19T14:52:25.702Z,69.57
2022-12-19T14:54:08.629Z,69.68
2022-12-19T14:54:13.431Z,69.01
2022-12-19T14:56:13.604Z,68.94
2022-12-19T14:58:54.241Z,68.16
2022-12-19T15:01:28.141Z,69.51
2022-12-19T15:04:52.199Z,69.66
2022-12-19T15:07:26.522Z,69.59
2022-12-19T15:11:08.479Z,69.22
2022-12-19T15:14:56.242Z,70.07
2022-12-19T15:16:34.747Z,69.22
2022-12-19T15:19:18.616Z,69.03
2022-12-19T15:22:02.670Z,69.26
2022-12-19T15:24:46.614Z,69.37
2022-12-19T15:27:30.398Z,69.98
2022-12-19T15:30:18.613Z,69.92
2022-12-19T15:33:03.896Z,69.74
2022-12-19T15:35:47.813Z,70.18
2022-12-19T15:38:31.584Z,70.57
2022-12-19T15:41:21.753Z,70.02
2022-12-19T15:44:11.016Z,69.73
2022-12-19T15:46:55.498Z,69.40
2022-12-19T15:49:41.210Z,69.75
2022-12-19T15:52:25.755Z,70.78
2022-12-19T15:55:13.859Z,69.04
2022-12-19T15:58:01.040Z,69.93
2022-12-19T16:00:51.506Z,68.88
2022-12-19T16:03:38.049Z,69.24
2022-12-19T16:06:23.320Z,68.97
2022-12-19T16:09:18.495Z,69.17
2022-12-19T16:12:02.512Z,69.15
2022-12-19T16:14:48.849Z,69.54
2022-12-19T16:17:34.252Z,70.13
2022-12-19T16:20:19.686Z,69.76
2022-12-19T16:23:05.227Z,68.90
2022-12-19T16:25:51.088Z,70.20
2022-12-19T16:28:35.041Z,69.84
2022-12-19T16:31:24.709Z,69.66
2022-12-19T16:34:15.343Z,70.54
2022-12-19T16:36:59.220Z,70.95
2022-12-19T16:39:44.469Z,69.83
2022-12-19T16:42:29.336Z,69.31
2022-12-19T16:45:24.840Z,69.91
2022-12-19T16:48:19.645Z,69.78
2022-12-19T16:51:03.675Z,69.67
2022-12-19T16:53:48.352Z,71.89
2022-12-19T16:56:36.308Z,72.46
2022-12-19T16:59:22.670Z,71.98
2022-12-19T17:02:32.412Z,72.05
2022-12-19T17:05:19.934Z,71.50
2022-12-19T17:08:03.745Z,71.13
2022-12-19T17:10:48.413Z,70.46
2022-12-19T17:13:33.740Z,70.37
2022-12-19T17:16:18.046Z,70.14
2022-12-19T17:19:02.532Z,71.05
2022-12-19T17:21:46.326Z,71.33
2022-12-19T17:24:30.086Z,71.42
2022-12-19T17:27:14.159Z,71.80
2022-12-19T17:29:59.361Z,71.48
2022-12-19T17:32:44.265Z,72.30
2022-12-19T17:35:30.754Z,71.81
2022-12-19T17:38:16.367Z,72.45
2022-12-19T17:41:00.575Z,71.65
2022-12-19T17:43:44.747Z,70.64
2022-12-19T17:46:32.053Z,70.56
2022-12-19T17:49:18.739Z,70.19
2022-12-19T17:52:02.779Z,71.17
2022-12-19T17:54:47.109Z,71.74
2022-12-19T17:57:31.181Z,71.74
2022-12-19T18:00:16.459Z,71.97
2022-12-19T18:03:05.148Z,71.13
2022-12-19T18:05:50.674Z,71.78
2022-12-19T18:08:34.665Z,70.67
2022-12-19T18:11:21.716Z,69.77
2022-12-19T18:14:05.633Z,70.64
2022-12-19T18:16:51.653Z,71.96
2022-12-19T18:19:36.959Z,71.65
2022-12-19T18:22:22.143Z,72.12
2022-12-19T18:25:16.650Z,72.16
2022-12-19T18:28:00.463Z,72.22
2022-12-19T18:30:45.424Z,73.28
2022-12-19T18:33:34.593Z,74.18
2022-12-19T18:36:22.672Z,75.15
2022-12-19T18:39:18.889Z,74.56
2022-12-19T18:42:02.724Z,74.17
2022-12-19T18:44:46.468Z,74.79
2022-12-19T18:47:30.258Z,75.03
2022-12-19T18:50:20.746Z,76.13
2022-12-19T18:53:11.791Z,75.77
2022-12-19T18:55:55.684Z,76.23
2022-12-19T18:58:39.640Z,76.65
2022-12-19T19:01:23.495Z,76.40
2022-12-19T19:04:07.496Z,76.82
2022-12-19T19:06:52.643Z,76.34
2022-12-19T19:09:38.055Z,76.16
2022-12-19T19:12:42.650Z,76.22
2022-12-19T19:15:29.835Z,75.57
2022-12-19T19:18:13.892Z,75.81
2022-12-19T19:21:01.234Z,75.26
2022-12-19T19:23:49.517Z,75.80
2022-12-19T19:26:34.720Z,76.45
2022-12-19T19:29:19.799Z,77.09
2022-12-19T19:32:03.761Z,77.20
2022-12-19T19:34:47.706Z,76.65
2022-12-19T19:37:31.457Z,77.75
2022-12-19T19:40:15.889Z,78.03
2022-12-19T19:43:01.004Z,77.94
2022-12-19T19:45:45.157Z,77.76
2022-12-19T19:48:29.118Z,77.84
2022-12-19T19:51:16.402Z,77.81
2022-12-19T19:54:00.189Z,77.76
2022-12-19T19:56:43.976Z,77.52
2022-12-19T19:59:31.923Z,77.90
2022-12-19T20:02:16.908Z,77.50
2022-12-19T20:05:01.295Z,76.74
2022-12-19T20:07:45.522Z,77.51
2022-12-19T20:10:29.232Z,77.04
2022-12-19T20:13:13.027Z,77.50
2022-12-19T20:16:04.386Z,78.73
2022-12-19T20:18:49.876Z,79.83
2022-12-19T20:21:33.753Z,79.05
2022-12-19T20:24:17.611Z,80.04
2022-12-19T20:27:01.337Z,79.87
2022-12-19T20:29:45.461Z,80.22
2022-12-19T20:32:31.095Z,79.79
2022-12-19T20:35:16.212Z,79.89
2022-12-19T20:37:59.944Z,79.98
2022-12-19T20:40:44.303Z,79.98
2022-12-19T20:43:28.118Z,79.75
2022-12-19T20:46:14.080Z,79.53
2022-12-19T20:49:00.114Z,78.38
2022-12-19T20:51:44.439Z,78.04
2022-12-19T20:54:28.289Z,76.75
2022-12-19T20:57:12.083Z,77.44
2022-12-19T20:59:55.769Z,75.87
2022-12-19T21:03:16.907Z,76.36
2022-12-19T21:05:44.847Z,76.33
2022-12-19T21:08:29.251Z,76.22
2022-12-19T21:11:14.019Z,75.90
2022-12-19T21:13:57.986Z,76.18
2022-12-19T21:16:41.840Z,76.89
2022-12-19T21:19:25.723Z,77.71
2022-12-19T21:22:11.077Z,77.10
2022-12-19T21:24:54.853Z,77.19
2022-12-19T21:27:38.639Z,76.98
2022-12-19T21:30:22.470Z,77.13
2022-12-19T21:33:06.467Z,77.07
2022-12-19T21:35:50.096Z,75.86
2022-12-19T21:38:35.390Z,76.96
2022-12-19T21:41:19.746Z,76.90
2022-12-19T21:44:03.534Z,78.42
2022-12-19T21:46:47.307Z,77.87
2022-12-19T21:49:31.205Z,77.74
2022-12-19T21:52:15.088Z,78.19
2022-12-19T21:55:00.313Z,78.73
2022-12-19T21:57:44.178Z,79.31
2022-12-19T22:00:28.045Z,79.07
2022-12-19T22:03:14.763Z,78.96
2022-12-19T22:05:59.414Z,79.33
2022-12-19T22:08:43.579Z,79.32
2022-12-19T22:11:29.967Z,78.71
2022-12-19T22:14:15.186Z,78.16
2022-12-19T22:16:59.034Z,78.08
2022-12-19T22:19:42.902Z,78.62
2022-12-19T22:22:26.732Z,78.31
2022-12-19T22:25:11.062Z,77.93
2022-12-19T22:27:57.806Z,77.97
2022-12-19T22:30:41.631Z,78.67
2022-12-19T22:33:25.455Z,78.75
2022-12-19T22:36:11.770Z,78.49
2022-12-19T22:39:00.387Z,79.53
2022-12-19T22:41:44.288Z,78.22
2022-12-19T22:44:29.445Z,78.96
2022-12-19T22:47:13.127Z,78.51
2022-12-19T22:49:56.923Z,78.93
2022-12-19T22:52:40.759Z,79.51
2022-12-19T22:55:24.485Z,79.72
2022-12-19T22:58:08.452Z,79.36
2022-12-19T23:00:53.602Z,78.62
2022-12-19T23:03:37.531Z,78.60
2022-12-19T23:06:22.588Z,79.05
2022-12-19T23:09:07.715Z,79.15
2022-12-19T23:11:51.563Z,79.13
2022-12-19T23:14:35.366Z,79.45
2022-12-19T23:17:20.523Z,79.87
2022-12-19T23:20:04.802Z,80.72
2022-12-19T23:22:48.786Z,80.26
2022-12-19T23:25:32.631Z,79.11
2022-12-19T23:28:16.259Z,79.52
2022-12-19T23:31:06.895Z,79.73
2022-12-19T23:33:52.665Z,79.29
2022-12-19T23:39:40.089Z,79.89
2022-12-19T23:42:23.839Z,80.20
2022-12-19T23:45:08.998Z,80.54
2022-12-19T23:47:52.735Z,80.53
2022-12-19T23:50:37.857Z,81.29
2022-12-19T23:53:21.645Z,80.94
2022-12-19T23:56:08.375Z,81.09
2022-12-19T23:58:52.195Z,80.66
